Port Angeles, WA

6:08 PM PDT on March 27, 2015 (GMT -0700)
Fairchild International | | Change Station
CLOSE
Current Station
Airport
Location: Port Angeles,
Elevation: 289 ft
Nearby Weather Stations

Elev 289 ft 48.12 °N, 123.50 °W | Updated 15 minutes ago

Partly Cloudy
Partly Cloudy
56 °F
Feels Like 56 °F
N
9
Wind Variable Wind from WNW

Today
High -- | Low -- °F
--% Chance of Precip.
Yesterday
High -- | Low -- °F
Precip. -- in
7:02 AM 7:36 PM
First Quarter, 57% visible
Pressure 29.92 in
Visibility 10.0 miles
Clouds Few 2000 ft
Scattered Clouds 7000 ft
Mostly Cloudy 8500 ft
Dew Point 50 °F
Humidity 80%
Rainfall 0.00 in
Snow Depth Not available.
UV 1 out of 12
Pollen 8.90 out of 12
Air Quality Not available.
Flu Activity Not available.
METAR KCLM 280053Z AUTO 30008KT 10SM FEW020 SCT070 BKN085 13/10 A2991 RMK AO2 SLP130 T01330100

More Conditions Fewer Conditions

Pressure 29.92 in
Visibility 10.0 miles
Clouds Few 2000 ft
Scattered Clouds 7000 ft
Mostly Cloudy 8500 ft
Dew Point 50 °F
Humidity 80%
Rainfall 0.00 in
Snow Depth Not available.
UV 1 out of 12
Pollen 8.90 out of 12
Air Quality Not available.
Flu Activity Not available.
METAR KCLM 280053Z AUTO 30008KT 10SM FEW020 SCT070 BKN085 13/10 A2991 RMK AO2 SLP130 T01330100

More Conditions Fewer Conditions

10-Day Weather Forecast

Almanac

Astronomy

Mar. 27, 2015 Rise Set
Actual Time
Civil Twilight
Nautical Twilight
Astronomical Twilight
Moon
Length of Visible Light
Length of Day
Tomorrow will be .
, % of the Moon is Illuminated

Today's Extremes

State Highs State Lows

Community

WunderPhotos

Upload Photos

1,808,901 photos uploaded!

WunderBlogs® & News

Nearby

Air Quality

  Air Quality AQ Index Pollutant
Not available.

Snow Depth

Station Depth Elevation

Earthquake Activity

City Distance Mag. Time & Date
Minimum magnitude displayed is 2.5.

Coastal Water Temperatures

Place Temperature

Stations

Nearby Weather Stations

Station Location Temp. Windchill Dew Point Humidity Wind Precip. Elev Updated Type